Time;durP1;ratioP1;P1;durP2;ratioP2;P2;SDS_P1;SDS_P2;PMS_P1;PMS_P2;Temp;Humidity;BMP_temperature;BMP_pressure;BME280_temperature;BME280_humidity;BME280_pressure;Samples;Min_cycle;Max_cycle;Signal;HPM_P1;HPM_P2
2022/11/26 00:00:48;;;;;;;20.50;6.80;;;5.60;99.90;;;;;;5074341;28;20190;-49
2022/11/26 00:03:14;;;;;;;17.17;6.90;;;5.50;99.90;;;;;;5074525;28;20250;-48
2022/11/26 00:05:44;;;;;;;22.00;6.00;;;5.50;99.90;;;;;;5074744;28;20533;-49
2022/11/26 00:08:18;;;;;;;16.20;5.93;;;5.60;99.90;;;;;;5074429;28;20205;-49
2022/11/26 00:10:43;;;;;;;19.03;6.47;;;5.60;99.90;;;;;;5074523;28;20197;-48
2022/11/26 00:13:16;;;;;;;15.63;6.03;;;5.60;99.90;;;;;;5074098;28;20231;-50
2022/11/26 00:15:41;;;;;;;13.63;5.60;;;5.60;99.90;;;;;;5074423;28;20277;-47
2022/11/26 00:18:07;;;;;;;19.27;6.67;;;5.60;99.90;;;;;;5074135;28;20202;-49
2022/11/26 00:20:32;;;;;;;28.47;6.63;;;5.60;99.90;;;;;;5074067;28;20540;-50
2022/11/26 00:23:01;;;;;;;16.53;6.03;;;5.50;99.90;;;;;;5074146;28;20530;-48
2022/11/26 00:25:37;;;;;;;14.43;5.73;;;5.60;99.90;;;;;;5074106;28;20545;-49
2022/11/26 00:28:21;;;;;;;21.37;6.67;;;5.60;99.90;;;;;;5073997;28;20660;-49
2022/11/26 00:30:46;;;;;;;17.03;6.20;;;5.50;99.90;;;;;;5074034;28;20178;-50
2022/11/26 00:33:12;;;;;;;22.53;6.33;;;5.50;99.90;;;;;;5073625;28;20181;-49
2022/11/26 00:35:37;;;;;;;14.10;6.07;;;5.50;99.90;;;;;;5073967;28;20266;-49
2022/11/26 00:38:03;;;;;;;14.03;5.73;;;5.50;99.90;;;;;;5074002;28;20342;-50
2022/11/26 00:40:32;;;;;;;19.13;5.80;;;5.50;99.90;;;;;;5073952;28;20184;-48
2022/11/26 00:42:58;;;;;;;14.70;6.17;;;5.50;99.90;;;;;;5073625;28;20260;-50
2022/11/26 00:45:29;;;;;;;18.57;5.97;;;5.50;99.90;;;;;;5073512;28;20212;-48
2022/11/26 00:47:56;;;;;;;13.03;5.33;;;5.50;99.90;;;;;;5073813;28;20181;-47
2022/11/26 00:50:25;;;;;;;16.70;5.67;;;5.50;99.90;;;;;;5073456;28;20223;-50
2022/11/26 00:52:53;;;;;;;18.67;6.10;;;5.50;99.90;;;;;;5073471;28;20186;-50
2022/11/26 00:55:27;;;;;;;17.57;5.63;;;5.50;99.90;;;;;;5073007;28;20767;-49
2022/11/26 00:57:53;;;;;;;22.57;6.57;;;5.50;99.90;;;;;;5073375;28;20268;-50
2022/11/26 01:00:23;;;;;;;19.33;6.00;;;5.50;99.90;;;;;;5073306;28;20201;-51
2022/11/26 01:02:49;;;;;;;24.43;6.63;;;5.50;99.90;;;;;;5073189;28;20235;-50
2022/11/26 01:05:15;;;;;;;24.43;6.07;;;5.60;99.90;;;;;;5073894;28;20660;-50
2022/11/26 01:07:42;;;;;;;19.23;6.13;;;5.60;99.90;;;;;;5073777;28;20262;-49
2022/11/26 01:10:23;;;;;;;18.87;5.50;;;5.60;99.90;;;;;;5073583;28;20181;-49
2022/11/26 01:12:49;;;;;;;19.30;5.90;;;5.60;99.90;;;;;;5073173;28;20219;-50
2022/11/26 01:15:16;;;;;;;23.67;6.87;;;5.60;99.90;;;;;;5073215;28;20208;-49
2022/11/26 01:17:42;;;;;;;28.27;7.20;;;5.60;99.90;;;;;;5073062;28;20177;-50
2022/11/26 01:20:21;;;;;;;22.70;6.20;;;5.70;99.90;;;;;;5073397;28;20181;-50
2022/11/26 01:22:49;;;;;;;19.17;5.77;;;5.70;99.90;;;;;;5073338;28;20213;-50
2022/11/26 01:25:14;;;;;;;26.90;6.33;;;5.80;99.90;;;;;;5073327;28;20185;-51
2022/11/26 01:27:40;;;;;;;18.27;6.23;;;5.80;99.90;;;;;;5073200;28;20177;-50
2022/11/26 01:30:19;;;;;;;22.10;6.60;;;5.80;99.90;;;;;;5073385;28;20265;-50
2022/11/26 01:32:46;;;;;;;21.77;6.03;;;5.80;99.90;;;;;;5073285;28;20248;-50
2022/11/26 01:35:12;;;;;;;26.40;7.83;;;5.80;99.90;;;;;;5073173;28;20724;-50
2022/11/26 01:37:38;;;;;;;24.37;7.43;;;5.70;99.90;;;;;;5072995;28;20275;-50
2022/11/26 01:40:24;;;;;;;19.10;7.00;;;5.60;99.90;;;;;;5072962;28;20188;-50
2022/11/26 01:42:58;;;;;;;19.53;6.50;;;5.50;99.90;;;;;;5073353;28;20253;-49
2022/11/26 01:45:24;;;;;;;14.77;6.27;;;5.40;99.90;;;;;;5073215;28;20168;-51
2022/11/26 01:47:49;;;;;;;17.37;6.03;;;5.30;99.90;;;;;;5073007;28;20584;-49
2022/11/26 01:50:46;;;;;;;18.10;6.30;;;5.20;99.90;;;;;;5073099;28;20196;-49
2022/11/26 01:53:18;;;;;;;18.43;5.80;;;5.20;99.90;;;;;;5066897;28;20657;-49
2022/11/26 01:55:51;;;;;;;15.57;6.07;;;5.00;99.90;;;;;;5073109;28;20702;-49
2022/11/26 01:58:47;;;;;;;22.23;5.87;;;5.00;99.90;;;;;;5072980;28;20219;-48
2022/11/26 02:01:13;;;;;;;18.20;6.73;;;4.90;99.90;;;;;;5068574;28;20192;-48
2022/11/26 02:03:54;;;;;;;15.27;5.73;;;4.80;99.90;;;;;;5072619;28;20285;-50
2022/11/26 02:06:24;;;;;;;18.87;6.10;;;4.80;99.90;;;;;;5073445;28;20166;-47
2022/11/26 02:08:50;;;;;;;14.80;5.93;;;4.70;99.90;;;;;;5076445;28;20203;-48
2022/11/26 02:11:20;;;;;;;19.40;5.70;;;4.70;99.90;;;;;;5076950;28;20601;-50
2022/11/26 02:13:48;;;;;;;14.93;5.13;;;4.60;99.90;;;;;;5076328;28;20288;-48
2022/11/26 02:16:36;;;;;;;14.90;5.70;;;4.50;99.90;;;;;;5076113;28;20191;-48
2022/11/26 02:19:31;;;;;;;14.67;5.63;;;4.50;99.90;;;;;;5076540;28;20197;-48
2022/11/26 02:22:15;;;;;;;15.57;5.07;;;4.40;99.90;;;;;;5004590;28;20211;-48
2022/11/26 02:25:02;;;;;;;14.60;5.57;;;4.30;99.90;;;;;;5076226;28;20222;-49
2022/11/26 02:27:57;;;;;;;11.67;4.37;;;4.20;99.90;;;;;;5076182;28;20295;-47
2022/11/26 02:30:23;;;;;;;9.93;4.53;;;4.10;99.90;;;;;;5076374;28;20212;-49
2022/11/26 02:33:04;;;;;;;14.33;5.40;;;4.00;99.90;;;;;;5076640;28;20208;-49
2022/11/26 02:35:47;;;;;;;8.40;4.53;;;3.90;99.90;;;;;;5076416;28;20271;-48
2022/11/26 02:38:19;;;;;;;11.53;5.30;;;3.90;99.90;;;;;;5076158;28;20556;-50
2022/11/26 02:40:44;;;;;;;9.73;4.67;;;3.90;99.90;;;;;;5076510;28;20623;-49
2022/11/26 02:43:11;;;;;;;13.73;5.50;;;3.90;99.90;;;;;;5075942;28;20176;-49
2022/11/26 02:45:39;;;;;;;18.33;4.87;;;3.80;99.90;;;;;;5076201;28;20226;-49
2022/11/26 02:48:13;;;;;;;11.87;4.60;;;3.90;99.90;;;;;;5075828;28;20203;-49
2022/11/26 02:50:46;;;;;;;16.83;5.03;;;3.80;99.90;;;;;;5075725;28;20217;-48
2022/11/26 02:53:14;;;;;;;12.30;5.33;;;3.80;99.90;;;;;;5075747;28;20173;-49
2022/11/26 02:55:44;;;;;;;13.27;5.13;;;3.80;99.90;;;;;;5075974;28;20578;-48
2022/11/26 02:58:10;;;;;;;12.63;4.83;;;3.80;99.90;;;;;;5075715;28;20204;-50
2022/11/26 03:00:39;;;;;;;11.10;5.07;;;3.80;99.90;;;;;;5075876;28;20176;-50
2022/11/26 03:03:21;;;;;;;16.03;4.77;;;3.70;99.90;;;;;;5075550;28;20249;-50
2022/11/26 03:05:48;;;;;;;18.43;5.40;;;3.70;99.90;;;;;;5075625;28;20176;-50
2022/11/26 03:08:14;;;;;;;13.87;4.53;;;3.70;99.90;;;;;;5075673;28;20262;-49
2022/11/26 03:10:40;;;;;;;11.37;4.90;;;3.60;99.90;;;;;;5075442;28;20184;-50
2022/11/26 03:13:05;;;;;;;13.73;4.67;;;3.60;99.90;;;;;;5075722;28;20203;-49
2022/11/26 03:15:31;;;;;;;14.03;5.23;;;3.60;99.90;;;;;;5075264;28;20208;-49
2022/11/26 03:17:56;;;;;;;16.13;5.13;;;3.50;99.90;;;;;;5074992;28;20278;-50
2022/11/26 03:20:22;;;;;;;11.87;5.57;;;3.60;99.90;;;;;;5075135;28;20206;-51
2022/11/26 03:22:48;;;;;;;14.90;6.20;;;3.60;99.90;;;;;;5075285;28;20183;-49
2022/11/26 03:25:13;;;;;;;12.10;6.30;;;3.60;99.90;;;;;;5075324;28;20184;-48
2022/11/26 03:27:39;;;;;;;13.03;5.90;;;3.60;99.90;;;;;;5074976;28;20187;-48
2022/11/26 03:30:05;;;;;;;19.80;6.47;;;3.60;99.90;;;;;;5074849;28;20180;-49
2022/11/26 03:32:31;;;;;;;13.53;6.23;;;3.60;99.90;;;;;;5075004;28;20195;-49
2022/11/26 03:34:56;;;;;;;12.17;6.13;;;3.50;99.90;;;;;;5075350;28;20203;-48
2022/11/26 03:37:22;;;;;;;17.30;7.07;;;3.50;99.90;;;;;;5074744;28;20176;-48
2022/11/26 03:39:48;;;;;;;20.80;7.77;;;3.50;99.90;;;;;;5074723;28;20594;-50
2022/11/26 03:42:13;;;;;;;17.47;7.13;;;3.40;99.90;;;;;;5074690;28;20184;-48
2022/11/26 03:44:39;;;;;;;17.50;6.67;;;3.50;99.90;;;;;;5074858;28;20180;-50
2022/11/26 03:47:04;;;;;;;13.97;7.20;;;3.50;99.90;;;;;;5074930;28;20640;-50
2022/11/26 03:49:30;;;;;;;18.73;8.20;;;3.50;99.90;;;;;;5074672;28;20202;-49
2022/11/26 03:51:56;;;;;;;17.93;7.60;;;3.50;99.90;;;;;;5074762;28;20670;-49
2022/11/26 03:54:21;;;;;;;20.80;7.53;;;3.50;99.90;;;;;;5074745;28;20222;-48
2022/11/26 03:56:47;;;;;;;13.93;6.77;;;3.50;99.90;;;;;;5056592;28;20270;-49
2022/11/26 03:59:13;;;;;;;16.73;7.40;;;3.40;99.90;;;;;;5074394;28;20199;-49
2022/11/26 04:01:38;;;;;;;13.90;7.17;;;3.50;99.90;;;;;;5074699;28;20179;-48
2022/11/26 04:04:04;;;;;;;12.90;6.97;;;3.40;99.90;;;;;;5074768;28;20222;-47
2022/11/26 04:06:29;;;;;;;13.00;6.40;;;3.40;99.90;;;;;;5074527;28;20179;-46
2022/11/26 04:08:55;;;;;;;13.13;6.50;;;3.30;99.90;;;;;;5074329;28;20211;-47
2022/11/26 04:11:21;;;;;;;13.17;5.87;;;3.30;99.90;;;;;;5074239;28;20184;-48
2022/11/26 04:13:46;;;;;;;16.07;7.23;;;3.20;99.90;;;;;;5074096;28;20216;-49
2022/11/26 04:16:12;;;;;;;18.37;7.23;;;3.20;99.90;;;;;;5074627;28;20180;-49
2022/11/26 04:18:37;;;;;;;13.90;7.17;;;3.10;99.90;;;;;;5073977;28;20675;-49
2022/11/26 04:21:07;;;;;;;16.73;6.13;;;3.10;99.90;;;;;;5073978;28;20639;-48
2022/11/26 04:23:33;;;;;;;12.73;6.23;;;3.10;99.90;;;;;;5074053;28;20179;-49
2022/11/26 04:25:59;;;;;;;14.90;5.90;;;3.00;99.90;;;;;;5074331;28;20167;-49
2022/11/26 04:28:25;;;;;;;10.60;5.83;;;2.90;99.90;;;;;;5073839;28;20196;-48
2022/11/26 04:30:50;;;;;;;12.03;6.43;;;2.90;99.90;;;;;;5073380;28;20180;-49
2022/11/26 04:33:16;;;;;;;12.33;6.43;;;2.90;99.90;;;;;;5074201;28;20255;-49
2022/11/26 04:35:41;;;;;;;12.27;6.13;;;2.90;99.90;;;;;;5073730;28;20572;-47
2022/11/26 04:38:07;;;;;;;10.63;6.67;;;2.80;99.90;;;;;;5073830;28;20199;-47
2022/11/26 04:40:33;;;;;;;9.77;6.40;;;2.80;99.90;;;;;;5073846;28;20210;-48
2022/11/26 04:42:58;;;;;;;11.27;5.90;;;2.70;99.90;;;;;;5073753;28;20176;-50
2022/11/26 04:45:24;;;;;;;11.10;6.50;;;2.70;99.90;;;;;;5073630;28;20757;-49
2022/11/26 04:47:49;;;;;;;11.23;6.60;;;2.70;99.90;;;;;;5073449;28;20609;-50
2022/11/26 04:50:15;;;;;;;13.07;6.67;;;2.60;99.90;;;;;;5073611;28;20199;-49
2022/11/26 04:52:41;;;;;;;12.53;6.83;;;2.90;99.90;;;;;;5073550;28;20175;-49
2022/11/26 04:55:06;;;;;;;12.33;6.47;;;2.60;99.90;;;;;;5073418;28;20667;-49
2022/11/26 04:57:32;;;;;;;12.07;6.63;;;2.60;99.90;;;;;;5073394;28;20183;-49
2022/11/26 04:59:57;;;;;;;11.57;6.53;;;2.50;99.90;;;;;;5073323;28;20199;-50
2022/11/26 05:02:23;;;;;;;9.43;6.03;;;2.50;99.90;;;;;;5073638;28;20180;-49
2022/11/26 05:04:49;;;;;;;10.97;6.40;;;2.50;99.90;;;;;;5073251;28;20195;-49
2022/11/26 05:07:14;;;;;;;9.37;5.10;;;2.50;99.90;;;;;;5073233;28;20232;-48
2022/11/26 05:09:40;;;;;;;8.87;5.47;;;2.40;99.90;;;;;;5073243;28;20202;-49
2022/11/26 05:12:05;;;;;;;17.50;5.50;;;2.40;99.90;;;;;;5073209;28;20176;-50
2022/11/26 05:14:31;;;;;;;13.50;5.13;;;2.40;99.90;;;;;;5073697;28;20298;-48
2022/11/26 05:16:57;;;;;;;9.47;5.53;;;2.40;99.90;;;;;;5073194;28;20262;-48
2022/11/26 05:19:22;;;;;;;13.30;6.20;;;2.40;99.90;;;;;;5073203;28;20199;-48
2022/11/26 05:21:48;;;;;;;12.13;5.60;;;2.40;99.90;;;;;;5073213;28;20176;-49
2022/11/26 05:24:13;;;;;;;7.80;5.47;;;2.40;99.90;;;;;;5073130;28;20187;-49
2022/11/26 05:26:39;;;;;;;10.10;6.20;;;2.30;99.90;;;;;;5073111;28;20190;-48
2022/11/26 05:29:04;;;;;;;11.00;6.90;;;2.40;99.90;;;;;;5073023;28;20200;-49
2022/11/26 05:31:30;;;;;;;11.23;6.63;;;2.30;99.90;;;;;;5073029;28;20176;-48
2022/11/26 05:33:55;;;;;;;13.03;7.30;;;2.30;99.90;;;;;;5073572;28;20191;-49
2022/11/26 05:36:21;;;;;;;12.20;7.20;;;2.30;99.90;;;;;;5073688;28;20187;-49
2022/11/26 05:38:47;;;;;;;14.03;7.17;;;2.30;99.90;;;;;;5072948;28;20608;-50
2022/11/26 05:41:12;;;;;;;14.90;7.13;;;2.40;99.90;;;;;;5073338;28;20187;-48
2022/11/26 05:43:38;;;;;;;14.30;7.13;;;2.30;99.90;;;;;;5077109;28;20191;-50
2022/11/26 05:46:05;;;;;;;13.80;6.80;;;2.30;99.90;;;;;;5077254;28;20182;-50
2022/11/26 05:48:31;;;;;;;16.63;7.23;;;2.30;99.90;;;;;;5077433;28;20257;-48
2022/11/26 05:50:58;;;;;;;13.30;6.70;;;2.30;99.90;;;;;;5077047;28;20187;-47
2022/11/26 05:53:24;;;;;;;14.30;7.17;;;2.30;99.90;;;;;;5076930;28;20181;-48
2022/11/26 05:55:49;;;;;;;12.00;6.23;;;2.30;99.90;;;;;;5058963;28;20233;-46
2022/11/26 05:58:15;;;;;;;13.83;7.23;;;2.30;99.90;;;;;;5076768;28;20207;-48
2022/11/26 06:00:40;;;;;;;9.97;5.83;;;2.30;99.90;;;;;;5077029;28;20271;-48
2022/11/26 06:03:06;;;;;;;12.47;6.67;;;2.20;99.90;;;;;;5076762;28;20265;-48
2022/11/26 06:05:31;;;;;;;11.30;5.93;;;2.20;99.90;;;;;;5058703;28;20259;-49
2022/11/26 06:07:57;;;;;;;9.83;6.20;;;2.20;99.90;;;;;;5076623;28;20207;-49
2022/11/26 06:10:23;;;;;;;12.97;6.20;;;2.20;99.90;;;;;;5076902;28;20233;-48
2022/11/26 06:12:49;;;;;;;14.63;6.77;;;2.20;99.90;;;;;;5076616;28;20171;-48
2022/11/26 06:15:14;;;;;;;13.03;6.30;;;2.10;99.90;;;;;;5058519;28;20203;-48
2022/11/26 06:17:40;;;;;;;9.37;6.37;;;2.20;99.90;;;;;;5076439;28;20203;-48
2022/11/26 06:20:06;;;;;;;10.40;6.60;;;2.20;99.90;;;;;;5076767;28;20705;-48
2022/11/26 06:22:41;;;;;;;12.57;5.80;;;2.10;99.90;;;;;;5076341;28;20689;-48
2022/11/26 06:25:09;;;;;;;9.73;5.80;;;2.10;99.90;;;;;;5076565;28;20250;-47
2022/11/26 06:27:35;;;;;;;15.80;6.30;;;2.10;99.90;;;;;;5058429;28;20188;-48
2022/11/26 06:30:03;;;;;;;15.97;5.40;;;2.10;99.90;;;;;;5076217;28;20258;-48
2022/11/26 06:32:29;;;;;;;11.73;5.27;;;2.10;99.90;;;;;;5076435;28;20543;-48
2022/11/26 06:34:55;;;;;;;44.93;5.07;;;2.10;99.90;;;;;;5076306;28;20207;-48
2022/11/26 06:37:21;;;;;;;20.70;5.30;;;2.10;99.90;;;;;;5075982;28;20176;-48
2022/11/26 06:39:46;;;;;;;10.97;5.13;;;2.10;99.90;;;;;;5075821;28;20199;-48
2022/11/26 06:42:12;;;;;;;8.37;5.40;;;2.10;99.90;;;;;;5075931;28;20164;-48
2022/11/26 06:44:37;;;;;;;9.90;5.60;;;2.10;99.90;;;;;;5075905;28;20187;-48
2022/11/26 06:47:03;;;;;;;8.43;5.47;;;2.10;99.90;;;;;;5076123;28;20198;-48
2022/11/26 06:49:29;;;;;;;9.83;5.00;;;2.10;99.90;;;;;;5075774;28;20203;-48
2022/11/26 06:51:54;;;;;;;10.87;6.00;;;2.10;99.90;;;;;;5075343;28;20236;-48
2022/11/26 06:54:20;;;;;;;9.70;6.13;;;2.00;99.90;;;;;;5075744;28;20203;-48
2022/11/26 06:56:45;;;;;;;9.73;5.43;;;2.00;99.90;;;;;;5075711;28;20188;-49
2022/11/26 06:59:11;;;;;;;9.10;5.73;;;2.00;99.90;;;;;;5075498;28;20195;-49
2022/11/26 07:01:37;;;;;;;8.33;5.03;;;2.00;99.90;;;;;;5075629;28;20541;-48
2022/11/26 07:04:03;;;;;;;10.03;5.20;;;2.00;99.90;;;;;;5075486;28;20233;-48
2022/11/26 07:06:31;;;;;;;10.37;5.73;;;2.00;99.90;;;;;;5075522;28;20258;-48
2022/11/26 07:09:00;;;;;;;13.47;6.20;;;2.00;99.90;;;;;;5075749;28;20215;-47
2022/11/26 07:11:26;;;;;;;11.67;6.17;;;2.00;99.90;;;;;;5075539;28;20640;-48
2022/11/26 07:13:52;;;;;;;10.80;6.17;;;2.10;99.90;;;;;;5075494;28;20214;-50
2022/11/26 07:16:18;;;;;;;13.20;7.27;;;2.10;99.90;;;;;;5076555;28;20207;-49
2022/11/26 07:18:49;;;;;;;14.80;7.17;;;2.10;99.90;;;;;;5076548;28;20219;-50
2022/11/26 07:21:14;;;;;;;13.23;7.13;;;2.10;99.90;;;;;;5075684;28;20222;-49
2022/11/26 07:23:40;;;;;;;13.00;7.30;;;2.10;99.90;;;;;;5075256;28;20651;-49
2022/11/26 07:26:07;;;;;;;12.17;7.13;;;2.10;99.90;;;;;;5075446;28;20189;-48
2022/11/26 07:28:33;;;;;;;15.33;7.30;;;2.20;99.90;;;;;;5074991;28;20286;-48
2022/11/26 07:31:08;;;;;;;17.00;7.37;;;2.20;99.90;;;;;;5074991;28;20253;-49
2022/11/26 07:33:33;;;;;;;13.83;7.57;;;2.20;99.90;;;;;;5075477;28;20588;-49
2022/11/26 07:36:00;;;;;;;17.83;8.03;;;2.20;99.90;;;;;;5075226;28;20183;-49
2022/11/26 07:38:27;;;;;;;16.27;7.13;;;2.20;99.90;;;;;;5074901;28;20289;-47
2022/11/26 07:40:53;;;;;;;17.93;7.57;;;2.30;99.90;;;;;;5075221;28;20561;-51
2022/11/26 07:43:19;;;;;;;12.77;7.37;;;2.40;99.90;;;;;;5075480;28;20181;-47
2022/11/26 07:45:44;;;;;;;15.87;7.77;;;2.40;99.90;;;;;;5075363;28;20222;-48
2022/11/26 07:48:10;;;;;;;13.43;7.47;;;2.50;99.90;;;;;;5074721;28;20551;-48
2022/11/26 07:50:36;;;;;;;13.40;7.47;;;2.50;99.90;;;;;;5074957;28;20179;-47
2022/11/26 07:53:01;;;;;;;17.97;7.83;;;2.50;99.90;;;;;;5074897;28;20535;-47
2022/11/26 07:55:27;;;;;;;22.63;8.07;;;2.60;99.90;;;;;;5074602;28;20703;-48
2022/11/26 07:57:53;;;;;;;22.30;7.73;;;2.60;99.90;;;;;;5074752;28;20535;-47
2022/11/26 08:00:19;;;;;;;15.67;7.70;;;2.70;99.90;;;;;;5075058;28;20650;-48
2022/11/26 08:02:44;;;;;;;18.37;8.10;;;2.80;99.90;;;;;;5074664;28;20179;-48
2022/11/26 08:05:10;;;;;;;13.40;7.47;;;2.80;99.90;;;;;;5056238;28;20581;-48
2022/11/26 08:07:35;;;;;;;17.50;7.93;;;2.90;99.90;;;;;;5056841;28;20191;-48
2022/11/26 08:10:02;;;;;;;14.57;7.30;;;2.90;99.90;;;;;;5074346;28;20215;-48
2022/11/26 08:12:28;;;;;;;14.70;7.07;;;2.90;99.90;;;;;;5074529;28;20179;-48
2022/11/26 08:14:53;;;;;;;15.33;7.30;;;2.90;99.90;;;;;;5074385;28;20213;-49
2022/11/26 08:17:19;;;;;;;17.77;7.63;;;3.00;99.90;;;;;;5074786;28;20624;-49
2022/11/26 08:19:45;;;;;;;12.77;7.50;;;3.10;99.90;;;;;;5074354;28;20199;-49
2022/11/26 08:22:10;;;;;;;13.17;7.33;;;3.10;99.90;;;;;;5074278;28;20229;-49
2022/11/26 08:24:36;;;;;;;14.43;8.00;;;3.10;99.90;;;;;;5073956;28;20215;-50
2022/11/26 08:27:01;;;;;;;20.17;8.43;;;3.20;99.90;;;;;;5074029;28;20498;-49
2022/11/26 08:29:27;;;;;;;15.47;7.80;;;3.20;99.90;;;;;;5074184;28;20329;-49
2022/11/26 08:31:52;;;;;;;22.17;7.53;;;3.30;99.90;;;;;;5074080;28;20187;-47
2022/11/26 08:34:18;;;;;;;13.70;6.63;;;3.40;99.90;;;;;;5074016;28;20337;-49
2022/11/26 08:36:44;;;;;;;18.57;6.77;;;3.50;99.90;;;;;;5073871;28;20175;-49
2022/11/26 08:39:16;;;;;;;16.00;6.13;;;3.50;99.90;;;;;;5073606;28;20210;-48
2022/11/26 08:41:41;;;;;;;17.93;6.20;;;3.60;99.90;;;;;;5073746;28;20184;-50
2022/11/26 08:44:07;;;;;;;16.83;6.43;;;3.70;99.90;;;;;;5073890;28;20267;-47
2022/11/26 08:46:33;;;;;;;19.93;5.60;;;3.80;99.90;;;;;;5073852;28;20536;-49
2022/11/26 08:48:58;;;;;;;17.20;6.07;;;3.80;99.90;;;;;;5073775;28;20227;-49
2022/11/26 08:51:25;;;;;;;20.63;6.73;;;3.90;99.90;;;;;;5073797;28;20171;-49
2022/11/26 08:53:50;;;;;;;12.67;5.47;;;4.00;99.90;;;;;;5073344;28;20218;-49
2022/11/26 08:56:16;;;;;;;14.27;6.67;;;4.10;99.90;;;;;;5073507;28;20639;-49
2022/11/26 08:58:47;;;;;;;18.40;6.37;;;4.20;99.90;;;;;;5073735;28;20203;-50
2022/11/26 09:01:21;;;;;;;19.90;6.03;;;4.30;99.90;;;;;;5073751;28;20258;-49
2022/11/26 09:03:51;;;;;;;20.20;5.80;;;4.30;99.90;;;;;;5073535;28;20576;-50
2022/11/26 09:06:18;;;;;;;21.70;5.87;;;4.50;99.90;;;;;;5073703;28;20179;-50
2022/11/26 09:11:28;;;;;;;18.83;6.23;;;4.70;99.90;;;;;;5073859;28;20277;-50
2022/11/26 09:13:56;;;;;;;26.07;6.27;;;4.90;99.90;;;;;;5073233;28;20199;-48
2022/11/26 09:16:21;;;;;;;21.53;6.33;;;5.00;99.90;;;;;;5073078;28;20244;-47
2022/11/26 09:18:47;;;;;;;23.43;7.00;;;5.20;99.90;;;;;;5055174;28;20264;-50
2022/11/26 09:21:13;;;;;;;25.20;6.57;;;5.40;99.90;;;;;;5073205;28;20174;-50
2022/11/26 09:23:38;;;;;;;17.37;5.83;;;5.50;99.90;;;;;;5073148;28;20176;-50
2022/11/26 09:26:04;;;;;;;22.50;6.10;;;5.70;99.90;;;;;;5073198;28;20180;-50
2022/11/26 09:28:29;;;;;;;19.77;5.80;;;5.80;99.90;;;;;;5073061;28;20195;-50
2022/11/26 09:30:59;;;;;;;18.93;5.97;;;6.00;99.90;;;;;;5073942;28;20190;-50
2022/11/26 09:33:25;;;;;;;18.53;6.50;;;6.20;99.90;;;;;;5073085;28;20254;-50
2022/11/26 09:35:51;;;;;;;24.87;6.10;;;6.30;99.90;;;;;;5073506;28;20295;-51
2022/11/26 09:38:16;;;;;;;20.10;6.50;;;6.50;99.90;;;;;;5073226;28;20226;-51
2022/11/26 09:40:53;;;;;;;22.20;6.50;;;6.60;99.90;;;;;;5072939;28;20719;-50
2022/11/26 09:43:28;;;;;;;17.73;5.27;;;6.70;99.90;;;;;;5073385;28;20695;-49
2022/11/26 09:45:58;;;;;;;19.43;5.73;;;6.70;99.90;;;;;;5073436;28;20182;-49
2022/11/26 09:48:27;;;;;;;26.80;6.97;;;6.80;99.90;;;;;;5072775;28;20699;-49
2022/11/26 09:51:01;;;;;;;19.93;5.73;;;6.90;99.90;;;;;;5073168;28;20249;-49
2022/11/26 09:53:32;;;;;;;25.07;6.50;;;6.90;99.90;;;;;;5073171;28;20170;-49
2022/11/26 09:55:59;;;;;;;24.20;5.90;;;7.00;99.90;;;;;;5073212;28;20166;-50
2022/11/26 09:58:47;;;;;;;26.23;6.40;;;7.10;99.90;;;;;;5072835;28;20736;-49
2022/11/26 10:01:17;;;;;;;36.30;7.20;;;7.10;99.90;;;;;;5073030;28;20261;-49
2022/11/26 10:03:43;;;;;;;22.47;5.33;;;7.20;99.90;;;;;;5073004;28;20208;-49
2022/11/26 10:06:26;;;;;;;20.83;4.93;;;7.30;99.90;;;;;;5072974;28;20266;-50
2022/11/26 10:09:14;;;;;;;18.10;4.77;;;7.40;99.90;;;;;;5072824;28;20200;-49
2022/11/26 10:12:00;;;;;;;26.10;5.70;;;7.50;99.90;;;;;;5073060;28;20166;-49
2022/11/26 10:14:43;;;;;;;24.63;5.53;;;7.50;99.90;;;;;;5054733;28;20194;-50
2022/11/26 10:17:12;;;;;;;23.57;5.40;;;7.60;99.90;;;;;;5072952;28;20170;-49
2022/11/26 10:19:45;;;;;;;29.60;5.43;;;7.70;99.90;;;;;;5072669;28;20194;-50
2022/11/26 10:22:36;;;;;;;25.83;5.60;;;7.80;99.90;;;;;;5072644;28;20641;-50
2022/11/26 10:25:12;;;;;;;22.03;5.13;;;7.90;99.90;;;;;;5072666;28;20171;-50
2022/11/26 10:27:38;;;;;;;28.97;5.63;;;8.00;99.90;;;;;;5074714;28;20633;-50
2022/11/26 10:30:23;;;;;;;38.77;6.03;;;8.10;99.90;;;;;;5077797;28;20170;-49
2022/11/26 10:32:50;;;;;;;38.50;6.77;;;8.10;99.90;;;;;;5076415;28;20539;-50
2022/11/26 10:35:19;;;;;;;25.37;5.67;;;8.20;99.90;;;;;;5076247;28;20695;-50
2022/11/26 10:37:45;;;;;;;31.07;5.30;;;8.20;99.90;;;;;;5076279;28;20224;-50
2022/11/26 10:40:23;;;;;;;34.43;6.40;;;8.30;99.90;;;;;;5076923;28;20176;-49
2022/11/26 10:43:20;;;;;;;26.50;6.03;;;8.40;99.90;;;;;;5076112;28;20529;-50
2022/11/26 10:45:52;;;;;;;32.50;5.03;;;8.50;99.90;;;;;;5070309;28;20187;-50
2022/11/26 10:48:31;;;;;;;37.40;4.93;;;8.50;99.90;;;;;;5075774;28;20744;-49
2022/11/26 10:51:02;;;;;;;30.10;4.73;;;8.70;99.90;;;;;;5076056;28;20179;-50
2022/11/26 10:53:33;;;;;;;37.50;4.97;;;8.80;99.90;;;;;;5075957;28;20273;-50
2022/11/26 10:56:04;;;;;;;30.83;4.13;;;8.90;99.90;;;;;;5075729;28;20184;-51
2022/11/26 10:58:38;;;;;;;29.23;5.43;;;8.90;99.90;;;;;;5057737;28;20198;-50
2022/11/26 11:01:05;;;;;;;37.67;4.47;;;9.00;99.90;;;;;;5076088;28;20218;-51
2022/11/26 11:03:46;;;;;;;39.00;4.60;;;9.00;99.90;;;;;;5075653;28;20765;-50
2022/11/26 11:06:26;;;;;;;35.03;5.30;;;9.10;99.90;;;;;;5076035;28;20170;-49
2022/11/26 11:08:53;;;;;;;26.57;3.87;;;9.10;99.90;;;;;;5076025;28;20246;-50
2022/11/26 11:11:27;;;;;;;36.60;5.07;;;9.20;99.90;;;;;;5075839;28;20198;-47
2022/11/26 11:13:54;;;;;;;32.27;4.20;;;9.20;99.90;;;;;;5075560;28;20225;-49
2022/11/26 11:16:29;;;;;;;23.60;3.47;;;9.20;99.90;;;;;;5075436;28;20180;-50
2022/11/26 11:19:01;;;;;;;32.67;4.30;;;9.30;99.90;;;;;;5057310;28;20221;-49
2022/11/26 11:21:32;;;;;;;36.00;4.53;;;9.40;99.90;;;;;;5075400;28;20199;-49
2022/11/26 11:24:16;;;;;;;31.07;4.07;;;9.40;99.90;;;;;;5075964;28;20258;-50
2022/11/26 11:26:47;;;;;;;36.17;4.00;;;9.50;99.90;;;;;;5076001;28;20161;-50
2022/11/26 11:29:27;;;;;;;35.57;4.43;;;9.60;99.90;;;;;;5057775;28;20542;-49
2022/11/26 11:31:54;;;;;;;31.17;3.73;;;9.60;99.90;;;;;;5075439;28;20172;-49
2022/11/26 11:34:30;;;;;;;27.40;4.37;;;9.70;99.90;;;;;;5075858;28;20625;-50
2022/11/26 11:37:20;;;;;;;35.80;4.60;;;9.70;99.90;;;;;;5075518;28;20316;-50
2022/11/26 11:40:03;;;;;;;33.30;4.03;;;9.70;99.90;;;;;;5075366;28;20648;-51
2022/11/26 11:42:31;;;;;;;32.97;4.13;;;9.70;99.90;;;;;;5075267;28;20168;-51
2022/11/26 11:44:58;;;;;;;24.20;3.97;;;9.80;99.90;;;;;;5075336;28;20180;-50
2022/11/26 11:47:32;;;;;;;27.03;4.17;;;9.80;99.90;;;;;;5075147;28;20173;-50
2022/11/26 11:50:22;;;;;;;35.80;4.10;;;9.80;99.90;;;;;;5075068;28;20219;-50
2022/11/26 11:53:18;;;;;;;34.80;4.23;;;9.80;99.90;;;;;;5075263;28;20173;-50
2022/11/26 11:56:01;;;;;;;36.17;4.60;;;9.90;99.90;;;;;;5074708;28;20216;-50
2022/11/26 11:58:46;;;;;;;31.23;6.13;;;9.90;99.90;;;;;;5074501;28;20274;-50
2022/11/26 12:01:36;;;;;;;31.70;4.40;;;9.90;99.90;;;;;;5056543;28;20183;-50
2022/11/26 12:04:25;;;;;;;30.17;4.60;;;10.00;99.90;;;;;;5074733;28;20613;-48
2022/11/26 12:07:27;;;;;;;22.47;4.03;;;10.00;99.90;;;;;;5074706;28;20168;-49
2022/11/26 12:10:09;;;;;;;30.13;3.80;;;10.00;99.90;;;;;;5074727;28;20199;-50
2022/11/26 12:12:39;;;;;;;31.67;4.77;;;10.10;99.90;;;;;;5074680;28;20168;-50
2022/11/26 12:15:22;;;;;;;40.20;4.43;;;10.20;99.90;;;;;;5074629;28;20256;-49
2022/11/26 12:18:09;;;;;;;41.60;4.57;;;10.30;99.90;;;;;;5074503;28;20167;-51
2022/11/26 12:20:58;;;;;;;25.40;3.47;;;10.30;99.90;;;;;;5074447;28;20168;-50
2022/11/26 12:23:43;;;;;;;36.70;3.50;;;10.40;99.90;;;;;;5074033;28;20182;-50
2022/11/26 12:26:23;;;;;;;30.50;3.63;;;10.40;99.90;;;;;;5074435;28;20156;-50
2022/11/26 12:29:01;;;;;;;34.70;3.70;;;10.40;99.90;;;;;;5074199;28;20338;-50
2022/11/26 12:32:08;;;;;;;18.30;3.30;;;10.30;99.90;;;;;;5074483;28;20176;-50
2022/11/26 12:34:45;;;;;;;22.93;3.30;;;10.40;99.90;;;;;;5063266;28;20219;-50
2022/11/26 12:37:49;;;;;;;30.00;3.53;;;10.40;99.90;;;;;;5074154;28;20274;-51
2022/11/26 12:40:36;;;;;;;25.63;3.40;;;10.40;99.90;;;;;;5031998;28;20191;-50
2022/11/26 12:43:14;;;;;;;27.60;3.37;;;10.40;99.90;;;;;;5056216;28;20180;-49
2022/11/26 12:45:59;;;;;;;26.23;4.47;;;10.50;99.90;;;;;;5075620;28;20176;-50
2022/11/26 12:48:52;;;;;;;32.93;3.83;;;10.50;99.90;;;;;;5077497;28;20221;-50
2022/11/26 12:51:43;;;;;;;29.67;4.03;;;10.60;99.90;;;;;;5076946;28;20643;-49
2022/11/26 12:54:21;;;;;;;33.33;3.70;;;10.70;99.90;;;;;;5077302;28;20560;-49
2022/11/26 12:57:22;;;;;;;31.37;4.33;;;10.80;99.90;;;;;;5076414;28;20171;-51
2022/11/26 12:59:53;;;;;;;22.00;3.37;;;10.90;99.90;;;;;;5076357;28;20217;-48
2022/11/26 13:02:21;;;;;;;23.30;4.27;;;11.00;99.90;;;;;;5077616;28;20175;-50
2022/11/26 13:04:47;;;;;;;19.90;3.70;;;10.90;99.90;;;;;;5076594;28;20195;-50